createdAt,value
2017-08-20T00:00:34.966Z,15.79
2017-08-20T00:03:04.225Z,15.79
2017-08-20T00:05:33.664Z,15.77
2017-08-20T00:08:03.119Z,15.75
2017-08-20T00:10:32.380Z,15.73
2017-08-20T00:13:01.817Z,15.73
2017-08-20T00:15:31.254Z,15.73
2017-08-20T00:18:00.684Z,15.70
2017-08-20T00:20:30.162Z,15.70
2017-08-20T00:22:59.620Z,15.68
2017-08-20T00:25:29.077Z,15.64
2017-08-20T00:27:58.520Z,15.63
2017-08-20T00:30:27.985Z,15.64
2017-08-20T00:32:57.461Z,15.63
2017-08-20T00:35:26.908Z,15.64
2017-08-20T00:37:56.367Z,15.63
2017-08-20T00:40:25.814Z,15.61
2017-08-20T00:42:55.267Z,15.61
2017-08-20T00:45:24.709Z,15.63
2017-08-20T00:47:54.153Z,15.65
2017-08-20T00:50:23.614Z,15.64
2017-08-20T00:52:53.061Z,15.66
2017-08-20T00:55:22.535Z,15.64
2017-08-20T00:57:51.969Z,15.63
2017-08-20T01:00:21.508Z,15.63
2017-08-20T01:02:50.764Z,15.60
2017-08-20T01:05:20.268Z,15.60
2017-08-20T01:07:49.716Z,15.58
2017-08-20T01:10:19.199Z,15.58
2017-08-20T01:12:48.645Z,15.55
2017-08-20T01:15:18.164Z,15.54
2017-08-20T01:17:47.718Z,15.52
2017-08-20T01:20:17.258Z,15.51
2017-08-20T01:22:46.715Z,15.49
2017-08-20T01:25:16.215Z,15.51
2017-08-20T01:27:45.661Z,15.49
2017-08-20T01:30:15.194Z,15.47
2017-08-20T01:32:44.673Z,15.45
2017-08-20T01:35:14.177Z,15.45
2017-08-20T01:37:43.645Z,15.42
2017-08-20T01:40:13.140Z,15.42
2017-08-20T01:42:42.579Z,15.43
2017-08-20T01:45:12.064Z,15.45
2017-08-20T01:47:41.516Z,15.47
2017-08-20T01:50:11.007Z,15.49
2017-08-20T01:52:40.475Z,15.50
2017-08-20T01:55:09.973Z,15.50
2017-08-20T01:57:39.408Z,15.49
2017-08-20T02:00:08.900Z,15.50
2017-08-20T02:02:38.180Z,15.49
2017-08-20T02:05:07.676Z,15.47
2017-08-20T02:07:37.123Z,15.46
2017-08-20T02:10:06.621Z,15.44
2017-08-20T02:12:35.908Z,15.41
2017-08-20T02:15:05.393Z,15.39
2017-08-20T02:17:34.844Z,15.37
2017-08-20T02:20:04.353Z,15.35
2017-08-20T02:22:33.817Z,15.33
2017-08-20T02:25:03.357Z,15.28
2017-08-20T02:27:32.792Z,15.23
2017-08-20T02:30:02.299Z,15.17
2017-08-20T02:32:31.752Z,15.12
2017-08-20T02:35:01.228Z,15.06
2017-08-20T02:37:30.685Z,15.02
2017-08-20T02:40:00.140Z,14.99
2017-08-20T02:42:29.599Z,14.93
2017-08-20T02:44:59.052Z,14.89
2017-08-20T02:47:28.508Z,14.87
2017-08-20T02:49:57.956Z,14.84
2017-08-20T02:52:27.421Z,14.83
2017-08-20T02:54:56.887Z,14.83
2017-08-20T02:57:26.344Z,14.82
2017-08-20T02:59:56.104Z,14.81
2017-08-20T03:02:25.705Z,14.83
2017-08-20T03:04:55.153Z,14.85
2017-08-20T03:07:24.620Z,14.82
2017-08-20T03:09:54.081Z,14.80
2017-08-20T03:12:23.572Z,14.77
2017-08-20T03:14:53.321Z,14.74
2017-08-20T03:17:23.081Z,14.68
2017-08-20T03:19:52.532Z,14.64
2017-08-20T03:22:21.997Z,14.59
2017-08-20T03:24:51.560Z,14.55
2017-08-20T03:27:21.026Z,14.51
2017-08-20T03:29:50.788Z,14.47
2017-08-20T03:32:20.536Z,14.43
2017-08-20T03:34:50.288Z,14.38
2017-08-20T03:37:19.802Z,14.36
2017-08-20T03:39:49.545Z,14.41
2017-08-20T03:42:19.296Z,14.42
2017-08-20T03:44:49.068Z,14.44
2017-08-20T03:47:18.555Z,14.44
2017-08-20T03:49:48.345Z,14.46
2017-08-20T03:52:18.110Z,14.43
2017-08-20T03:54:47.860Z,14.40
2017-08-20T03:57:17.628Z,14.42
2017-08-20T03:59:47.381Z,14.43
2017-08-20T04:02:17.145Z,14.43
2017-08-20T04:04:46.897Z,14.43
2017-08-20T04:07:16.647Z,14.45
2017-08-20T04:09:46.122Z,14.51
2017-08-20T04:12:15.891Z,14.56
2017-08-20T04:14:45.632Z,14.60
2017-08-20T04:17:15.569Z,14.67
2017-08-20T04:19:45.320Z,14.74
2017-08-20T04:22:15.068Z,14.81
2017-08-20T04:24:44.544Z,14.86
2017-08-20T04:27:14.016Z,14.93
2017-08-20T04:29:43.473Z,15.00
2017-08-20T04:32:13.209Z,15.08
2017-08-20T04:34:42.683Z,15.12
2017-08-20T04:37:12.121Z,15.21
2017-08-20T04:39:41.579Z,15.26
2017-08-20T04:42:11.059Z,15.30
2017-08-20T04:44:40.547Z,15.36
2017-08-20T04:47:10.012Z,15.41
2017-08-20T04:49:39.476Z,15.45
2017-08-20T04:52:08.935Z,15.53
2017-08-20T04:54:39.237Z,15.59
2017-08-20T04:57:08.789Z,15.57
2017-08-20T04:59:38.236Z,15.67
2017-08-20T05:02:07.694Z,15.71
2017-08-20T05:04:37.173Z,15.85
2017-08-20T05:07:06.644Z,15.97
2017-08-20T05:09:36.146Z,16.09
2017-08-20T05:12:05.596Z,16.21
2017-08-20T05:14:35.050Z,16.29
2017-08-20T05:17:04.504Z,16.39
2017-08-20T05:19:33.958Z,16.54
2017-08-20T05:22:03.425Z,16.71
2017-08-20T05:24:32.888Z,16.91
2017-08-20T05:27:02.335Z,17.04
2017-08-20T05:29:32.052Z,17.15
2017-08-20T05:32:01.501Z,17.26
2017-08-20T05:34:30.953Z,17.32
2017-08-20T05:37:00.429Z,17.16
2017-08-20T05:39:29.871Z,17.03
2017-08-20T05:41:59.319Z,17.03
2017-08-20T05:44:28.777Z,17.12
2017-08-20T05:46:58.722Z,17.18
2017-08-20T05:49:28.170Z,17.24
2017-08-20T05:51:57.625Z,17.32
2017-08-20T05:54:27.084Z,17.40
2017-08-20T05:56:56.549Z,17.55
2017-08-20T05:59:25.997Z,17.74
2017-08-20T06:01:55.452Z,17.91
2017-08-20T06:04:24.905Z,17.98
2017-08-20T06:06:54.360Z,18.02
2017-08-20T06:09:23.639Z,18.04
2017-08-20T06:11:53.113Z,18.00
2017-08-20T06:14:22.745Z,18.00
2017-08-20T06:16:52.200Z,18.05
2017-08-20T06:19:21.684Z,18.05
2017-08-20T06:21:51.123Z,18.05
2017-08-20T06:24:20.573Z,17.81
2017-08-20T06:26:50.037Z,17.68
2017-08-20T06:29:19.508Z,17.64
2017-08-20T06:31:48.990Z,17.68
2017-08-20T06:34:18.446Z,17.55
2017-08-20T06:36:47.904Z,17.39
2017-08-20T06:39:17.362Z,17.61
2017-08-20T06:41:46.835Z,17.85
2017-08-20T06:44:16.263Z,17.83
2017-08-20T06:46:45.735Z,17.99
2017-08-20T06:49:15.193Z,18.24
2017-08-20T06:51:44.653Z,18.49
2017-08-20T06:54:14.097Z,18.65
2017-08-20T06:56:43.556Z,18.62
2017-08-20T06:59:13.001Z,18.76
2017-08-20T07:01:42.472Z,18.81
2017-08-20T07:04:11.926Z,18.85
2017-08-20T07:06:41.373Z,18.64
2017-08-20T07:09:10.874Z,18.70
2017-08-20T07:11:40.318Z,18.71
2017-08-20T07:14:09.756Z,18.85
2017-08-20T07:16:40.187Z,19.10
2017-08-20T07:19:09.630Z,18.93
2017-08-20T07:21:40.658Z,19.09
2017-08-20T07:24:10.095Z,19.28
2017-08-20T07:26:39.559Z,19.00
2017-08-20T07:29:09.008Z,18.80
2017-08-20T07:31:38.465Z,18.77
2017-08-20T07:34:07.905Z,18.86
2017-08-20T07:36:37.357Z,19.25
2017-08-20T07:39:06.789Z,19.39
2017-08-20T07:41:36.241Z,19.54
2017-08-20T07:44:05.708Z,19.85
2017-08-20T07:46:35.152Z,19.80
2017-08-20T07:49:04.610Z,19.99
2017-08-20T07:51:34.084Z,20.07
2017-08-20T07:54:03.610Z,19.64
2017-08-20T07:56:33.056Z,19.53
2017-08-20T07:59:02.525Z,19.48
2017-08-20T08:01:31.997Z,19.18
2017-08-20T08:04:01.429Z,19.30
2017-08-20T08:06:30.872Z,18.92
2017-08-20T08:09:00.338Z,18.78
2017-08-20T08:11:29.789Z,19.05
2017-08-20T08:13:59.253Z,19.12
2017-08-20T08:16:28.692Z,19.49
2017-08-20T08:18:58.136Z,19.29
2017-08-20T08:21:27.584Z,19.40
2017-08-20T08:23:57.038Z,19.53
2017-08-20T08:26:26.504Z,19.55
2017-08-20T08:28:55.974Z,19.14
2017-08-20T08:31:25.432Z,19.42
2017-08-20T08:33:54.894Z,19.04
2017-08-20T08:36:24.337Z,19.05
2017-08-20T08:38:53.822Z,18.87
2017-08-20T08:41:23.261Z,18.92
2017-08-20T08:43:52.710Z,18.89
2017-08-20T08:46:22.163Z,19.13
2017-08-20T08:48:51.612Z,19.23
2017-08-20T08:51:21.054Z,19.19
2017-08-20T08:53:50.498Z,19.23
2017-08-20T08:56:19.938Z,19.62
2017-08-20T08:58:49.390Z,19.90
2017-08-20T09:01:18.824Z,19.75
2017-08-20T09:03:48.256Z,19.53
2017-08-20T09:06:17.705Z,19.55
2017-08-20T09:08:47.138Z,19.71
2017-08-20T09:11:16.572Z,19.63
2017-08-20T09:13:45.887Z,19.81
2017-08-20T09:16:15.321Z,19.78
2017-08-20T09:18:44.768Z,20.16
2017-08-20T09:21:14.244Z,20.16
2017-08-20T09:23:43.328Z,20.21
2017-08-20T09:26:12.781Z,20.42
2017-08-20T09:28:42.233Z,20.40
2017-08-20T09:31:11.664Z,20.58
2017-08-20T09:33:41.115Z,20.37
2017-08-20T09:36:10.573Z,20.64
2017-08-20T09:38:40.036Z,20.69
2017-08-20T09:41:09.479Z,20.67
2017-08-20T09:43:38.920Z,21.00
2017-08-20T09:46:08.368Z,20.87
2017-08-20T09:48:37.944Z,20.66
2017-08-20T09:51:07.363Z,20.33
2017-08-20T09:53:36.817Z,20.04
2017-08-20T09:56:06.262Z,20.18
2017-08-20T09:58:35.764Z,20.66
2017-08-20T10:01:05.211Z,21.12
2017-08-20T10:03:34.653Z,21.53
2017-08-20T10:06:04.106Z,21.14
2017-08-20T10:08:33.576Z,20.80
2017-08-20T10:11:03.012Z,20.51
2017-08-20T10:13:32.477Z,20.19
2017-08-20T10:16:01.922Z,20.39
2017-08-20T10:18:31.386Z,20.81
2017-08-20T10:21:00.849Z,21.00
2017-08-20T10:23:30.336Z,20.66
2017-08-20T10:25:59.793Z,20.50
2017-08-20T10:28:29.253Z,20.09
2017-08-20T10:30:58.701Z,20.45
2017-08-20T10:33:28.168Z,20.76
2017-08-20T10:35:57.617Z,21.50
2017-08-20T10:38:27.056Z,21.88
2017-08-20T10:40:56.490Z,21.97
2017-08-20T10:43:25.931Z,22.43
2017-08-20T10:45:55.375Z,22.74
2017-08-20T10:48:24.826Z,22.63
2017-08-20T10:50:54.264Z,22.79
2017-08-20T10:53:23.704Z,22.53
2017-08-20T10:55:53.183Z,22.54
2017-08-20T10:58:22.652Z,22.58
2017-08-20T11:00:52.098Z,22.91
2017-08-20T11:03:21.549Z,22.80
2017-08-20T11:05:50.988Z,22.69
2017-08-20T11:08:20.429Z,22.07
2017-08-20T11:10:49.860Z,22.47
2017-08-20T11:13:19.315Z,22.84
2017-08-20T11:15:48.748Z,22.40
2017-08-20T11:18:18.176Z,22.91
2017-08-20T11:20:47.613Z,23.23
2017-08-20T11:23:17.065Z,23.24
2017-08-20T11:25:46.500Z,22.94
2017-08-20T11:28:15.959Z,22.63
2017-08-20T11:30:45.404Z,22.52
2017-08-20T11:33:14.845Z,22.32
2017-08-20T11:35:44.313Z,21.81
2017-08-20T11:38:13.739Z,21.65
2017-08-20T11:40:43.184Z,21.33
2017-08-20T11:43:12.652Z,21.80
2017-08-20T11:45:42.129Z,21.72
2017-08-20T11:48:11.557Z,21.46
2017-08-20T11:50:41.006Z,21.65
2017-08-20T11:53:10.448Z,21.86
2017-08-20T11:55:39.901Z,21.91
2017-08-20T11:58:09.341Z,22.81
2017-08-20T12:00:38.817Z,22.25
2017-08-20T12:03:08.234Z,21.70
2017-08-20T12:05:37.690Z,21.23
2017-08-20T12:08:07.141Z,20.71
2017-08-20T12:10:36.582Z,20.71
2017-08-20T12:13:06.035Z,20.61
2017-08-20T12:15:35.465Z,20.65
2017-08-20T12:18:04.909Z,20.57
2017-08-20T12:20:34.348Z,20.64
2017-08-20T12:23:03.614Z,20.50
2017-08-20T12:25:33.052Z,20.48
2017-08-20T12:28:02.488Z,20.57
2017-08-20T12:30:31.962Z,20.60
2017-08-20T12:33:01.399Z,20.48
2017-08-20T12:35:30.844Z,20.37
2017-08-20T12:38:00.297Z,20.53
2017-08-20T12:40:29.745Z,20.67
2017-08-20T12:42:59.200Z,21.14
2017-08-20T12:45:28.648Z,21.07
2017-08-20T12:47:58.096Z,21.17
2017-08-20T12:50:27.536Z,21.24
2017-08-20T12:52:57.009Z,21.21
2017-08-20T12:55:26.440Z,21.08
2017-08-20T12:57:55.885Z,21.04
2017-08-20T13:00:25.322Z,20.88
2017-08-20T13:02:55.641Z,20.61
2017-08-20T13:05:25.077Z,21.04
2017-08-20T13:07:54.517Z,21.14
2017-08-20T13:10:24.031Z,21.25
2017-08-20T13:12:53.494Z,21.53
2017-08-20T13:15:22.961Z,21.35
2017-08-20T13:17:52.399Z,21.28
2017-08-20T13:20:21.884Z,21.16
2017-08-20T13:22:51.357Z,21.21
2017-08-20T13:25:20.847Z,21.49
2017-08-20T13:27:50.284Z,21.43
2017-08-20T13:30:19.760Z,21.23
2017-08-20T13:32:49.215Z,21.17
2017-08-20T13:35:18.744Z,21.64
2017-08-20T13:37:48.170Z,22.25
2017-08-20T13:40:17.677Z,23.90
2017-08-20T13:42:47.120Z,25.00
2017-08-20T13:45:16.730Z,25.23
2017-08-20T13:47:46.223Z,26.15
2017-08-20T13:50:15.917Z,27.61
2017-08-20T13:52:45.342Z,28.03
2017-08-20T13:55:14.843Z,27.72
2017-08-20T13:57:44.273Z,27.20
2017-08-20T14:00:13.781Z,28.12
2017-08-20T14:02:43.221Z,28.20
2017-08-20T14:05:12.695Z,28.83
2017-08-20T14:07:42.130Z,28.48
2017-08-20T14:10:11.605Z,29.11
2017-08-20T14:12:41.070Z,28.14
2017-08-20T14:15:10.590Z,28.12
2017-08-20T14:17:40.057Z,29.15
2017-08-20T14:20:09.537Z,29.38
2017-08-20T14:22:38.957Z,29.81
2017-08-20T14:25:08.426Z,29.12
2017-08-20T14:27:37.910Z,30.06
2017-08-20T14:30:07.389Z,29.73
2017-08-20T14:32:36.837Z,29.95
2017-08-20T14:35:06.363Z,29.36
2017-08-20T14:37:35.611Z,30.53
2017-08-20T14:40:05.124Z,29.69
2017-08-20T14:42:34.586Z,29.68
2017-08-20T14:45:04.061Z,29.53
2017-08-20T14:47:33.503Z,29.21
2017-08-20T14:50:03.002Z,29.18
2017-08-20T14:52:32.458Z,29.45
2017-08-20T14:55:01.973Z,28.99
2017-08-20T14:57:31.403Z,29.08
2017-08-20T15:00:00.858Z,29.93
2017-08-20T15:02:30.145Z,29.64
2017-08-20T15:04:59.634Z,29.32
2017-08-20T15:07:29.072Z,29.60
2017-08-20T15:09:58.517Z,29.73
2017-08-20T15:12:27.955Z,28.82
2017-08-20T15:14:57.397Z,28.79
2017-08-20T15:17:26.864Z,28.74
2017-08-20T15:19:56.334Z,28.54
2017-08-20T15:22:25.810Z,28.33
2017-08-20T15:24:55.275Z,27.68
2017-08-20T15:27:24.737Z,27.80
2017-08-20T15:29:54.165Z,28.14
2017-08-20T15:32:23.851Z,28.19
2017-08-20T15:34:53.295Z,27.99
2017-08-20T15:37:22.753Z,28.38
2017-08-20T15:39:52.199Z,28.33
2017-08-20T15:42:21.647Z,28.14
2017-08-20T15:44:51.083Z,29.12
2017-08-20T15:47:20.534Z,28.79
2017-08-20T15:49:50.009Z,30.05
2017-08-20T15:52:19.452Z,30.13
2017-08-20T15:54:48.924Z,28.62
2017-08-20T15:57:18.386Z,28.04
2017-08-20T15:59:47.841Z,27.90
2017-08-20T16:02:17.285Z,27.90
2017-08-20T16:04:46.774Z,27.96
2017-08-20T16:07:16.291Z,27.39
2017-08-20T16:09:45.749Z,27.73
2017-08-20T16:12:15.213Z,28.19
2017-08-20T16:14:44.648Z,26.89
2017-08-20T16:17:14.092Z,27.12
2017-08-20T16:19:43.542Z,27.55
2017-08-20T16:22:12.989Z,28.18
2017-08-20T16:24:42.446Z,27.33
2017-08-20T16:27:11.895Z,27.45
2017-08-20T16:29:41.348Z,26.42
2017-08-20T16:32:10.625Z,26.91
2017-08-20T16:34:40.070Z,27.03
2017-08-20T16:37:09.526Z,26.69
2017-08-20T16:39:38.960Z,27.33
2017-08-20T16:42:08.420Z,27.34
2017-08-20T16:44:37.867Z,27.34
2017-08-20T16:47:07.297Z,27.37
2017-08-20T16:49:36.746Z,26.61
2017-08-20T16:52:06.209Z,25.66
2017-08-20T16:54:35.668Z,25.69
2017-08-20T16:57:05.113Z,25.06
2017-08-20T16:59:34.564Z,24.67
2017-08-20T17:02:04.011Z,24.64
2017-08-20T17:04:33.472Z,24.63
2017-08-20T17:07:02.916Z,24.27
2017-08-20T17:09:32.369Z,24.46
2017-08-20T17:12:01.823Z,23.86
2017-08-20T17:14:31.264Z,23.72
2017-08-20T17:17:01.161Z,23.67
2017-08-20T17:19:30.607Z,23.55
2017-08-20T17:22:00.112Z,23.38
2017-08-20T17:24:29.784Z,22.81
2017-08-20T17:26:59.234Z,22.97
2017-08-20T17:29:28.674Z,22.48
2017-08-20T17:31:58.118Z,22.42
2017-08-20T17:34:27.553Z,21.93
2017-08-20T17:36:56.991Z,21.15
2017-08-20T17:39:26.448Z,21.01
2017-08-20T17:41:55.897Z,20.66
2017-08-20T17:44:25.354Z,20.47
2017-08-20T17:46:54.798Z,20.22
2017-08-20T17:49:24.247Z,20.01
2017-08-20T17:51:53.681Z,19.81
2017-08-20T17:54:23.127Z,19.61
2017-08-20T17:56:52.580Z,19.36
2017-08-20T17:59:21.849Z,19.06
2017-08-20T18:01:51.417Z,18.77
2017-08-20T18:04:20.733Z,18.56
2017-08-20T18:06:50.185Z,18.40
2017-08-20T18:09:19.617Z,18.16
2017-08-20T18:11:49.052Z,17.99
2017-08-20T18:14:18.513Z,17.80
2017-08-20T18:16:47.954Z,17.61
2017-08-20T18:19:17.418Z,17.43
2017-08-20T18:21:46.858Z,17.29
2017-08-20T18:24:16.301Z,17.15
2017-08-20T18:26:45.740Z,16.99
2017-08-20T18:29:15.197Z,16.87
2017-08-20T18:31:44.642Z,16.71
2017-08-20T18:34:14.091Z,16.56
2017-08-20T18:36:43.530Z,16.41
2017-08-20T18:39:12.982Z,16.28
2017-08-20T18:41:42.433Z,16.14
2017-08-20T18:44:11.673Z,16.02
2017-08-20T18:46:41.129Z,15.86
2017-08-20T18:49:10.583Z,15.74
2017-08-20T18:51:40.021Z,15.62
2017-08-20T18:54:09.497Z,15.49
2017-08-20T18:56:38.935Z,15.36
2017-08-20T18:59:08.445Z,15.23
2017-08-20T19:01:37.889Z,15.13
2017-08-20T19:04:07.340Z,15.03
2017-08-20T19:06:36.797Z,14.93
2017-08-20T19:09:06.257Z,14.82
2017-08-20T19:11:35.687Z,14.74
2017-08-20T19:14:05.432Z,14.62
2017-08-20T19:16:35.154Z,14.52
2017-08-20T19:19:04.903Z,14.52
2017-08-20T19:21:34.678Z,14.40
2017-08-20T19:24:04.422Z,14.44
2017-08-20T19:26:34.170Z,14.37
2017-08-20T19:29:03.909Z,14.31
2017-08-20T19:31:33.645Z,14.34
2017-08-20T19:34:03.380Z,14.24
2017-08-20T19:36:33.132Z,14.28
2017-08-20T19:39:02.861Z,14.14
2017-08-20T19:41:32.588Z,14.19
2017-08-20T19:44:02.337Z,14.16
2017-08-20T19:46:32.103Z,14.04
2017-08-20T19:49:01.821Z,13.93
2017-08-20T19:51:31.568Z,13.84
2017-08-20T19:54:01.303Z,13.75
2017-08-20T19:56:31.037Z,13.67
2017-08-20T19:59:00.771Z,13.59
2017-08-20T20:01:30.517Z,13.51
2017-08-20T20:04:00.260Z,13.44
2017-08-20T20:06:30.036Z,13.40
2017-08-20T20:08:59.871Z,13.33
2017-08-20T20:11:29.577Z,13.29
2017-08-20T20:13:59.294Z,13.24
2017-08-20T20:16:29.042Z,13.21
2017-08-20T20:18:58.778Z,13.18
2017-08-20T20:21:28.509Z,13.13
2017-08-20T20:23:58.251Z,13.10
2017-08-20T20:26:27.992Z,13.06
2017-08-20T20:28:57.739Z,13.01
2017-08-20T20:31:27.472Z,12.95
2017-08-20T20:33:57.206Z,12.91
2017-08-20T20:36:26.958Z,12.83
2017-08-20T20:38:56.777Z,12.81
2017-08-20T20:41:26.509Z,12.77
2017-08-20T20:43:57.081Z,12.73
2017-08-20T20:46:26.818Z,12.71
2017-08-20T20:48:56.556Z,12.69
2017-08-20T20:51:26.277Z,12.68
2017-08-20T20:53:56.009Z,12.64
2017-08-20T20:56:26.673Z,12.65
2017-08-20T20:58:56.433Z,12.62
2017-08-20T21:01:26.144Z,12.61
2017-08-20T21:03:55.879Z,12.62
2017-08-20T21:06:25.605Z,12.62
2017-08-20T21:08:55.355Z,12.58
2017-08-20T21:11:25.080Z,12.56
2017-08-20T21:13:54.804Z,12.53
2017-08-20T21:16:24.547Z,12.54
2017-08-20T21:18:54.264Z,12.47
2017-08-20T21:21:24.008Z,12.45
2017-08-20T21:23:53.744Z,12.41
2017-08-20T21:26:23.484Z,12.36
2017-08-20T21:28:53.229Z,12.33
2017-08-20T21:31:22.948Z,12.28
2017-08-20T21:33:52.693Z,12.24
2017-08-20T21:36:22.422Z,12.20
2017-08-20T21:38:52.144Z,12.18
2017-08-20T21:41:21.893Z,12.14
2017-08-20T21:43:51.625Z,12.09
2017-08-20T21:46:21.369Z,12.04
2017-08-20T21:48:51.137Z,12.00
2017-08-20T21:51:20.854Z,11.97
2017-08-20T21:53:50.586Z,11.95
2017-08-20T21:56:20.316Z,11.90
2017-08-20T21:58:49.872Z,11.86
2017-08-20T22:01:19.596Z,11.83
2017-08-20T22:03:49.322Z,11.79
2017-08-20T22:06:19.050Z,11.80
2017-08-20T22:08:48.793Z,11.76
2017-08-20T22:11:18.533Z,11.72
2017-08-20T22:13:48.262Z,11.67
2017-08-20T22:16:18.011Z,11.64
2017-08-20T22:18:47.756Z,11.61
2017-08-20T22:21:17.505Z,11.58
2017-08-20T22:23:47.243Z,11.56
2017-08-20T22:26:16.981Z,11.54
2017-08-20T22:28:46.713Z,11.56
2017-08-20T22:31:16.438Z,11.56
2017-08-20T22:33:46.182Z,11.51
2017-08-20T22:36:15.938Z,11.47
2017-08-20T22:38:45.668Z,11.47
2017-08-20T22:41:15.392Z,11.44
2017-08-20T22:43:45.116Z,11.43
2017-08-20T22:46:14.833Z,11.41
2017-08-20T22:48:44.642Z,11.40
2017-08-20T22:51:14.384Z,11.42
2017-08-20T22:53:44.108Z,11.39
2017-08-20T22:56:13.849Z,11.36
2017-08-20T22:58:43.577Z,11.33
2017-08-20T23:01:13.301Z,11.32
2017-08-20T23:03:43.050Z,11.28
2017-08-20T23:06:12.791Z,11.25
2017-08-20T23:08:42.537Z,11.23
2017-08-20T23:11:12.281Z,11.26
2017-08-20T23:13:42.006Z,11.23
2017-08-20T23:16:11.756Z,11.22
2017-08-20T23:18:41.475Z,11.24
2017-08-20T23:21:11.208Z,11.28
2017-08-20T23:23:40.940Z,11.30
2017-08-20T23:26:10.679Z,11.35
2017-08-20T23:28:40.418Z,11.39
2017-08-20T23:31:10.145Z,11.42
2017-08-20T23:33:39.936Z,11.43
2017-08-20T23:36:09.669Z,11.42
2017-08-20T23:38:39.454Z,11.42
2017-08-20T23:41:09.240Z,11.41
2017-08-20T23:43:38.979Z,11.40
2017-08-20T23:46:08.738Z,11.43
2017-08-20T23:48:38.446Z,11.48
2017-08-20T23:51:08.177Z,11.51
2017-08-20T23:53:37.897Z,11.54
2017-08-20T23:56:07.621Z,11.55
2017-08-20T23:58:37.352Z,11.54
